createdAt,value
2023-02-10T00:01:44.200Z,21.17
2023-02-10T00:04:14.139Z,21.17
2023-02-10T00:06:43.656Z,23.08
2023-02-10T00:09:14.074Z,24.23
2023-02-10T00:12:01.432Z,25.65
2023-02-10T00:14:30.850Z,25.58
2023-02-10T00:16:58.756Z,24.92
2023-02-10T00:19:28.643Z,24.33
2023-02-10T00:21:57.766Z,26.35
2023-02-10T00:24:26.066Z,24.30
2023-02-10T00:26:53.981Z,23.90
2023-02-10T00:29:22.230Z,26.58
2023-02-10T00:31:50.027Z,27.70
2023-02-10T00:34:19.590Z,26.75
2023-02-10T00:36:47.758Z,24.52
2023-02-10T00:39:17.422Z,27.58
2023-02-10T00:41:45.205Z,26.05
2023-02-10T00:44:13.153Z,26.38
2023-02-10T00:46:40.946Z,25.33
2023-02-10T00:49:08.874Z,28.63
2023-02-10T00:51:36.780Z,26.05
2023-02-10T00:54:04.731Z,26.15
2023-02-10T00:56:35.586Z,27.02
2023-02-10T00:59:03.718Z,27.40
2023-02-10T01:01:31.730Z,26.05
2023-02-10T01:03:59.792Z,28.80
2023-02-10T01:06:29.203Z,25.50
2023-02-10T01:08:57.463Z,28.05
2023-02-10T01:11:25.566Z,28.15
2023-02-10T01:13:54.719Z,22.98
2023-02-10T01:16:23.216Z,26.20
2023-02-10T01:18:51.364Z,24.80
2023-02-10T01:21:21.296Z,27.08
2023-02-10T01:24:04.310Z,28.00
2023-02-10T01:26:32.914Z,29.97
2023-02-10T01:29:02.157Z,27.88
2023-02-10T01:31:30.145Z,25.45
2023-02-10T01:33:58.440Z,26.45
2023-02-10T01:36:27.719Z,26.55
2023-02-10T01:38:55.783Z,27.50
2023-02-10T01:41:25.826Z,26.10
2023-02-10T01:44:00.417Z,26.38
2023-02-10T01:46:30.347Z,25.42
2023-02-10T01:49:00.745Z,30.00
2023-02-10T01:51:35.912Z,28.85
2023-02-10T01:54:04.664Z,25.15
2023-02-10T01:56:34.563Z,27.35
2023-02-10T01:59:02.592Z,28.88
2023-02-10T02:01:33.487Z,24.75
2023-02-10T02:04:03.827Z,29.38
2023-02-10T02:06:32.157Z,25.60
2023-02-10T02:09:00.882Z,27.63
2023-02-10T02:11:37.414Z,28.15
2023-02-10T02:14:14.444Z,28.98
2023-02-10T02:17:08.631Z,26.95
2023-02-10T02:20:17.200Z,28.58
2023-02-10T02:23:21.959Z,26.33
2023-02-10T02:26:03.250Z,25.13
2023-02-10T02:28:47.577Z,28.40
2023-02-10T02:31:42.995Z,28.42
2023-02-10T02:34:15.053Z,27.92
2023-02-10T02:36:52.271Z,30.73
2023-02-10T02:39:20.211Z,25.83
2023-02-10T02:41:48.393Z,28.73
2023-02-10T02:44:18.129Z,24.95
2023-02-10T02:46:57.885Z,27.63
2023-02-10T02:49:35.474Z,28.77
2023-02-10T02:52:07.308Z,31.17
2023-02-10T02:54:43.366Z,29.45
2023-02-10T02:57:19.328Z,25.15
2023-02-10T02:59:52.931Z,26.52
2023-02-10T03:02:22.892Z,27.88
2023-02-10T03:04:51.497Z,27.63
2023-02-10T03:07:19.275Z,29.10
2023-02-10T03:09:47.323Z,31.02
2023-02-10T03:12:15.505Z,28.08
2023-02-10T03:14:43.393Z,27.65
2023-02-10T03:17:11.321Z,29.02
2023-02-10T03:19:40.436Z,28.15
2023-02-10T03:22:08.339Z,25.40
2023-02-10T03:24:36.321Z,25.75
2023-02-10T03:27:06.394Z,30.92
2023-02-10T03:29:34.237Z,27.33
2023-02-10T03:32:02.736Z,29.30
2023-02-10T03:34:30.561Z,29.75
2023-02-10T03:36:59.733Z,28.77
2023-02-10T03:39:27.743Z,30.33
2023-02-10T03:41:55.783Z,27.30
2023-02-10T03:44:23.726Z,28.67
2023-02-10T03:46:51.440Z,28.13
2023-02-10T03:49:19.148Z,27.63
2023-02-10T03:51:46.844Z,31.65
2023-02-10T03:54:16.034Z,27.50
2023-02-10T03:56:43.747Z,28.45
2023-02-10T03:59:11.571Z,32.63
2023-02-10T04:01:39.424Z,31.60
2023-02-10T04:04:07.205Z,28.38
2023-02-10T04:06:34.977Z,28.85
2023-02-10T04:09:02.719Z,30.50
2023-02-10T04:11:31.823Z,29.38
2023-02-10T04:13:59.630Z,30.50
2023-02-10T04:16:28.851Z,30.10
2023-02-10T04:18:56.770Z,26.98
2023-02-10T04:21:25.492Z,28.65
2023-02-10T04:23:53.807Z,26.85
2023-02-10T04:26:21.616Z,26.85
2023-02-10T04:28:50.662Z,27.67
2023-02-10T04:31:18.636Z,28.65
2023-02-10T04:33:46.538Z,29.67
2023-02-10T04:36:14.312Z,26.80
2023-02-10T04:38:42.014Z,26.83
2023-02-10T04:41:10.057Z,24.92
2023-02-10T04:43:37.830Z,27.77
2023-02-10T04:46:07.037Z,28.77
2023-02-10T04:48:35.512Z,29.15
2023-02-10T04:51:08.646Z,23.05
2023-02-10T04:53:36.451Z,26.90
2023-02-10T04:56:04.908Z,29.00
2023-02-10T04:58:33.060Z,27.35
2023-02-10T05:01:00.874Z,25.63
2023-02-10T05:03:30.026Z,25.90
2023-02-10T05:05:57.743Z,25.55
2023-02-10T05:08:25.534Z,25.13
2023-02-10T05:10:54.300Z,24.83
2023-02-10T05:13:22.233Z,26.20
2023-02-10T05:15:50.171Z,27.17
2023-02-10T05:18:18.063Z,28.17
2023-02-10T05:20:47.286Z,27.00
2023-02-10T05:23:15.006Z,27.50
2023-02-10T05:25:42.726Z,25.35
2023-02-10T05:28:10.619Z,24.58
2023-02-10T05:30:38.348Z,22.75
2023-02-10T05:33:06.148Z,28.20
2023-02-10T05:35:33.945Z,26.48
2023-02-10T05:38:03.622Z,28.60
2023-02-10T05:40:31.496Z,25.90
2023-02-10T05:42:59.492Z,26.98
2023-02-10T05:45:27.275Z,25.77
2023-02-10T05:47:55.071Z,28.65
2023-02-10T05:50:22.874Z,28.75
2023-02-10T05:52:50.736Z,27.50
2023-02-10T05:55:19.942Z,31.63
2023-02-10T05:57:48.030Z,28.48
2023-02-10T06:00:17.160Z,28.77
2023-02-10T06:02:44.897Z,28.58
2023-02-10T06:05:12.711Z,26.98
2023-02-10T06:07:40.501Z,29.10
2023-02-10T06:10:08.895Z,25.88
2023-02-10T06:12:38.062Z,25.83
2023-02-10T06:15:06.401Z,27.05
2023-02-10T06:17:34.256Z,28.63
2023-02-10T06:20:02.035Z,29.23
2023-02-10T06:22:29.873Z,28.58
2023-02-10T06:24:58.527Z,28.35
2023-02-10T06:27:26.488Z,29.63
2023-02-10T06:29:55.651Z,30.10
2023-02-10T06:32:23.425Z,25.38
2023-02-10T06:34:51.107Z,25.63
2023-02-10T06:37:18.906Z,28.95
2023-02-10T06:39:46.653Z,28.85
2023-02-10T06:42:14.577Z,31.00
2023-02-10T06:44:42.413Z,28.27
2023-02-10T06:47:11.585Z,29.17
2023-02-10T06:49:40.358Z,27.65
2023-02-10T06:52:16.604Z,27.70
2023-02-10T06:54:45.052Z,29.58
2023-02-10T06:57:13.036Z,27.92
2023-02-10T06:59:40.814Z,26.45
2023-02-10T07:02:12.368Z,28.55
2023-02-10T07:04:40.577Z,29.10
2023-02-10T07:07:08.318Z,30.40
2023-02-10T07:09:36.092Z,29.27
2023-02-10T07:12:03.844Z,33.05
2023-02-10T07:14:31.637Z,27.05
2023-02-10T07:16:59.541Z,27.38
2023-02-10T07:19:28.913Z,25.73
2023-02-10T07:21:56.693Z,25.85
2023-02-10T07:24:24.635Z,28.25
2023-02-10T07:26:52.363Z,28.60
2023-02-10T07:29:20.462Z,25.40
2023-02-10T07:31:48.344Z,27.50
2023-02-10T07:34:16.245Z,28.30
2023-02-10T07:36:45.460Z,30.50
2023-02-10T07:39:13.354Z,28.45
2023-02-10T07:41:43.470Z,26.05
2023-02-10T07:44:11.760Z,28.00
2023-02-10T07:47:00.269Z,27.73
2023-02-10T07:49:44.187Z,28.48
2023-02-10T07:52:13.496Z,27.88
2023-02-10T07:54:41.378Z,27.52
2023-02-10T07:57:09.210Z,28.92
2023-02-10T07:59:37.000Z,28.40
2023-02-10T08:02:04.918Z,29.30
2023-02-10T08:04:32.809Z,28.25
2023-02-10T08:07:17.461Z,27.58
2023-02-10T08:10:12.697Z,29.17
2023-02-10T08:12:40.498Z,31.75
2023-02-10T08:15:09.118Z,30.27
2023-02-10T08:17:37.841Z,29.77
2023-02-10T08:20:06.869Z,29.02
2023-02-10T08:22:35.602Z,29.85
2023-02-10T08:25:06.366Z,31.55
2023-02-10T08:27:34.147Z,30.27
2023-02-10T08:30:01.871Z,27.75
2023-02-10T08:32:29.754Z,28.63
2023-02-10T08:34:58.026Z,28.80
2023-02-10T08:37:25.796Z,34.78
2023-02-10T08:39:53.539Z,33.13
2023-02-10T08:42:22.729Z,29.85
2023-02-10T08:44:50.503Z,28.58
2023-02-10T08:47:18.427Z,31.52
2023-02-10T08:49:46.211Z,29.52
2023-02-10T08:52:14.105Z,29.63
2023-02-10T08:54:41.814Z,31.98
2023-02-10T08:57:10.819Z,30.33
2023-02-10T08:59:39.928Z,34.22
2023-02-10T09:02:08.258Z,29.80
2023-02-10T09:04:37.168Z,33.45
2023-02-10T09:07:05.087Z,28.48
2023-02-10T09:09:33.075Z,29.25
2023-02-10T09:12:01.021Z,30.55
2023-02-10T09:14:28.791Z,34.30
2023-02-10T09:16:57.946Z,30.02
2023-02-10T09:19:26.210Z,30.15
2023-02-10T09:21:56.321Z,31.17
2023-02-10T09:24:24.496Z,28.27
2023-02-10T09:26:52.275Z,33.15
2023-02-10T09:29:20.392Z,28.77
2023-02-10T09:31:48.277Z,33.83
2023-02-10T09:34:17.614Z,32.33
2023-02-10T09:36:45.503Z,30.15
2023-02-10T09:39:13.337Z,27.83
2023-02-10T09:41:49.857Z,31.50
2023-02-10T09:44:21.522Z,29.67
2023-02-10T09:47:01.413Z,27.75
2023-02-10T09:49:58.372Z,28.90
2023-02-10T09:52:38.239Z,27.42
2023-02-10T09:55:14.188Z,29.27
2023-02-10T09:57:45.703Z,28.20
2023-02-10T10:00:26.067Z,28.08
2023-02-10T10:02:56.164Z,31.70
2023-02-10T10:05:40.267Z,29.00
2023-02-10T10:08:19.470Z,30.33
2023-02-10T10:10:47.956Z,26.88
2023-02-10T10:13:20.467Z,29.38
2023-02-10T10:16:03.584Z,30.38
2023-02-10T10:18:39.543Z,29.20
2023-02-10T10:21:18.104Z,30.58
2023-02-10T10:23:56.820Z,30.13
2023-02-10T10:26:41.116Z,27.25
2023-02-10T10:29:22.221Z,30.38
2023-02-10T10:31:56.107Z,27.58
2023-02-10T10:34:29.757Z,27.38
2023-02-10T10:37:00.613Z,28.65
2023-02-10T10:39:34.910Z,28.70
2023-02-10T10:42:19.100Z,30.73
2023-02-10T10:44:49.149Z,30.17
2023-02-10T10:47:22.708Z,31.15
2023-02-10T10:49:50.729Z,30.38
2023-02-10T10:52:29.739Z,28.38
2023-02-10T10:54:58.242Z,24.55
2023-02-10T10:57:27.884Z,30.92
2023-02-10T11:00:00.231Z,27.83
2023-02-10T11:02:29.316Z,26.45
2023-02-10T11:05:08.208Z,28.67
2023-02-10T11:07:39.430Z,28.27
2023-02-10T11:10:08.402Z,31.38
2023-02-10T11:12:39.899Z,27.40
2023-02-10T11:15:33.419Z,29.08
2023-02-10T11:20:34.276Z,25.02
2023-02-10T11:23:07.655Z,29.50
2023-02-10T11:25:38.329Z,25.95
2023-02-10T11:28:09.166Z,28.52
2023-02-10T11:30:38.810Z,28.88
2023-02-10T11:33:19.806Z,30.20
2023-02-10T11:35:50.324Z,25.95
2023-02-10T11:38:23.358Z,27.98
2023-02-10T11:40:54.333Z,25.20
2023-02-10T11:43:27.386Z,25.73
2023-02-10T11:45:57.895Z,23.45
2023-02-10T11:48:28.809Z,26.80
2023-02-10T11:51:14.290Z,23.42
2023-02-10T11:53:46.159Z,23.60
2023-02-10T11:56:23.265Z,21.25
2023-02-10T11:59:04.604Z,21.15
2023-02-10T12:01:52.612Z,19.50
2023-02-10T12:04:38.732Z,19.92
2023-02-10T12:07:17.508Z,17.95
2023-02-10T12:09:55.669Z,19.65
2023-02-10T12:12:34.299Z,21.40
2023-02-10T12:15:12.490Z,20.27
2023-02-10T12:17:48.445Z,18.95
2023-02-10T12:20:38.506Z,20.00
2023-02-10T12:23:21.445Z,22.27
2023-02-10T12:25:57.342Z,20.92
2023-02-10T12:28:37.363Z,19.92
2023-02-10T12:31:17.088Z,19.70
2023-02-10T12:33:58.363Z,22.27
2023-02-10T12:36:34.865Z,20.75
2023-02-10T12:39:15.649Z,22.02
2023-02-10T12:41:55.686Z,24.15
2023-02-10T12:44:36.161Z,26.23
2023-02-10T12:47:18.775Z,21.55
2023-02-10T12:49:57.050Z,22.10
2023-02-10T12:52:31.072Z,19.65
2023-02-10T12:55:03.975Z,22.80
2023-02-10T12:57:46.975Z,22.45
2023-02-10T13:00:21.294Z,23.55
2023-02-10T13:02:54.580Z,23.00
2023-02-10T13:05:27.538Z,23.48
2023-02-10T13:08:01.292Z,25.00
2023-02-10T13:10:34.667Z,21.10
2023-02-10T13:13:07.396Z,22.75
2023-02-10T13:15:40.454Z,23.92
2023-02-10T13:18:19.915Z,21.40
2023-02-10T13:20:56.634Z,23.60
2023-02-10T13:23:31.682Z,22.90
2023-02-10T13:26:17.811Z,21.02
2023-02-10T13:28:58.556Z,19.10
2023-02-10T13:31:46.934Z,20.67
2023-02-10T13:34:21.479Z,23.27
2023-02-10T13:36:55.684Z,23.13
2023-02-10T13:39:27.001Z,21.00
2023-02-10T13:42:20.781Z,20.63
2023-02-10T13:44:59.428Z,24.00
2023-02-10T13:47:32.639Z,20.35
2023-02-10T13:50:03.627Z,20.60
2023-02-10T13:52:35.740Z,20.02
2023-02-10T13:55:25.491Z,22.10
2023-02-10T13:57:55.345Z,19.70
2023-02-10T14:00:27.212Z,22.83
2023-02-10T14:03:04.362Z,19.08
2023-02-10T14:05:33.813Z,21.00
2023-02-10T14:08:01.684Z,21.02
2023-02-10T14:10:34.601Z,19.38
2023-02-10T14:13:06.326Z,20.75
2023-02-10T14:15:39.707Z,19.80
2023-02-10T14:18:24.541Z,16.95
2023-02-10T14:20:57.992Z,19.25
2023-02-10T14:23:26.477Z,17.80
2023-02-10T14:25:58.569Z,18.52
2023-02-10T14:28:31.511Z,17.38
2023-02-10T14:33:31.826Z,16.70
2023-02-10T14:36:01.292Z,15.80
2023-02-10T14:38:31.355Z,16.23
2023-02-10T14:41:11.678Z,16.13
2023-02-10T14:43:49.987Z,18.83
2023-02-10T14:46:24.023Z,17.98
2023-02-10T14:48:58.588Z,18.05
2023-02-10T14:51:28.102Z,18.02
2023-02-10T14:53:59.350Z,18.52
2023-02-10T14:56:30.455Z,15.70
2023-02-10T14:58:58.702Z,17.63
2023-02-10T15:01:36.334Z,17.08
2023-02-10T15:04:07.970Z,15.68
2023-02-10T15:06:41.091Z,16.08
2023-02-10T15:09:15.817Z,18.75
2023-02-10T15:12:04.705Z,17.40
2023-02-10T15:14:37.647Z,15.98
2023-02-10T15:17:09.838Z,18.17
2023-02-10T15:19:38.089Z,15.73
2023-02-10T15:22:34.096Z,15.90
2023-02-10T15:25:29.376Z,18.40
2023-02-10T15:27:58.029Z,17.02
2023-02-10T15:30:28.066Z,14.60
2023-02-10T15:32:59.842Z,15.80
2023-02-10T15:35:28.460Z,17.75
2023-02-10T15:37:59.830Z,15.10
2023-02-10T15:40:30.122Z,16.80
2023-02-10T15:42:59.866Z,16.33
2023-02-10T15:45:27.772Z,15.15
2023-02-10T15:48:01.925Z,14.27
2023-02-10T15:50:31.359Z,15.82
2023-02-10T15:53:00.485Z,16.73
2023-02-10T15:55:33.557Z,14.38
2023-02-10T15:58:02.786Z,12.50
2023-02-10T16:00:33.758Z,13.73
2023-02-10T16:03:03.639Z,12.57
2023-02-10T16:05:37.394Z,13.77
2023-02-10T16:08:07.905Z,13.32
2023-02-10T16:10:35.876Z,13.65
2023-02-10T16:13:04.021Z,11.88
2023-02-10T16:15:32.029Z,13.80
2023-02-10T16:18:03.782Z,14.13
2023-02-10T16:20:33.857Z,11.15
2023-02-10T16:31:26.989Z,12.43
2023-02-10T16:33:56.245Z,12.77
2023-02-10T16:36:24.074Z,11.82
2023-02-10T16:38:51.999Z,12.82
2023-02-10T16:41:20.336Z,11.30
2023-02-10T16:43:48.380Z,14.02
2023-02-10T16:46:18.720Z,15.77
2023-02-10T16:48:46.792Z,14.20
2023-02-10T16:51:16.322Z,13.77
2023-02-10T16:53:44.180Z,13.38
2023-02-10T16:56:16.302Z,14.80
2023-02-10T16:58:44.363Z,14.43
2023-02-10T17:01:12.111Z,14.55
2023-02-10T17:03:40.424Z,14.43
2023-02-10T17:06:09.562Z,14.35
2023-02-10T17:08:43.681Z,13.88
2023-02-10T17:11:12.220Z,14.82
2023-02-10T17:13:41.095Z,16.55
2023-02-10T17:16:21.952Z,16.70
2023-02-10T17:19:17.788Z,15.73
2023-02-10T17:21:45.916Z,14.63
2023-02-10T17:24:15.258Z,15.68
2023-02-10T17:26:47.969Z,16.35
2023-02-10T17:29:17.201Z,16.08
2023-02-10T17:31:45.918Z,17.05
2023-02-10T17:34:14.546Z,21.17
2023-02-10T17:36:43.135Z,17.50
2023-02-10T17:39:32.460Z,15.10
2023-02-10T17:42:00.245Z,16.63
2023-02-10T17:44:30.155Z,14.90
2023-02-10T17:46:58.554Z,15.98
2023-02-10T17:49:31.898Z,16.15
2023-02-10T17:52:03.108Z,15.98
2023-02-10T17:54:32.712Z,13.90
2023-02-10T17:57:00.808Z,14.88
2023-02-10T17:59:28.754Z,13.88
2023-02-10T18:01:59.153Z,16.58
2023-02-10T18:04:27.362Z,16.85
2023-02-10T18:06:55.379Z,17.42
2023-02-10T18:09:23.705Z,16.40
2023-02-10T18:11:53.005Z,17.17
2023-02-10T18:14:21.102Z,16.08
2023-02-10T18:16:49.090Z,16.77
2023-02-10T18:19:17.377Z,18.10
2023-02-10T18:21:45.365Z,17.15
2023-02-10T18:24:13.400Z,16.25
2023-02-10T18:26:41.377Z,17.85
2023-02-10T18:29:10.901Z,20.33
2023-02-10T18:31:39.765Z,19.15
2023-02-10T18:34:08.353Z,17.90
2023-02-10T18:36:36.582Z,22.50
2023-02-10T18:39:06.708Z,20.05
2023-02-10T18:41:34.585Z,19.67
2023-02-10T18:44:05.242Z,20.77
2023-02-10T18:46:34.604Z,23.35
2023-02-10T18:49:02.409Z,20.52
2023-02-10T18:51:31.412Z,21.17
2023-02-10T18:53:59.279Z,20.95
2023-02-10T18:56:27.614Z,20.95
2023-02-10T18:58:55.408Z,21.25
2023-02-10T19:01:24.938Z,23.52
2023-02-10T19:03:54.725Z,24.80
2023-02-10T19:06:23.012Z,21.25
2023-02-10T19:08:50.971Z,25.33
2023-02-10T19:11:19.296Z,23.60
2023-02-10T19:13:50.091Z,23.63
2023-02-10T19:16:18.184Z,24.20
2023-02-10T19:18:46.094Z,19.27
2023-02-10T19:21:15.586Z,22.48
2023-02-10T19:23:45.115Z,22.85
2023-02-10T19:26:14.122Z,19.35
2023-02-10T19:28:42.497Z,22.15
2023-02-10T19:31:13.550Z,22.63
2023-02-10T19:33:46.712Z,21.17
2023-02-10T19:38:45.756Z,20.23
2023-02-10T19:41:16.965Z,21.55
2023-02-10T19:43:45.454Z,22.02
2023-02-10T19:46:15.787Z,24.52
2023-02-10T19:48:45.820Z,21.35
2023-02-10T19:51:16.561Z,22.88
2023-02-10T19:53:45.541Z,23.55
2023-02-10T19:56:14.277Z,24.45
2023-02-10T19:58:42.341Z,24.17
2023-02-10T20:01:15.461Z,22.98
2023-02-10T20:03:44.074Z,27.40
2023-02-10T20:06:14.785Z,23.27
2023-02-10T20:08:44.240Z,23.08
2023-02-10T20:11:13.699Z,23.13
2023-02-10T20:13:41.725Z,24.80
2023-02-10T20:16:11.357Z,22.00
2023-02-10T20:18:39.377Z,23.67
2023-02-10T20:21:11.219Z,22.40
2023-02-10T20:23:41.147Z,25.45
2023-02-10T20:26:12.693Z,24.02
2023-02-10T20:28:41.055Z,25.85
2023-02-10T20:31:13.828Z,22.52
2023-02-10T20:36:13.920Z,20.77
2023-02-10T20:38:44.699Z,23.98
2023-02-10T20:41:18.242Z,24.05
2023-02-10T20:43:47.840Z,23.60
2023-02-10T20:46:17.492Z,25.15
2023-02-10T20:48:46.413Z,20.77
2023-02-10T20:51:15.067Z,26.23
2023-02-10T20:53:43.284Z,24.20
2023-02-10T20:56:12.502Z,23.85
2023-02-10T20:58:41.909Z,22.33
2023-02-10T21:01:12.301Z,23.88
2023-02-10T21:03:40.909Z,24.15
2023-02-10T21:06:11.332Z,21.80
2023-02-10T21:08:40.772Z,26.85
2023-02-10T21:11:09.919Z,24.17
2023-02-10T21:13:39.091Z,22.50
2023-02-10T21:16:10.230Z,22.98
2023-02-10T21:18:38.438Z,22.58
2023-02-10T21:21:08.664Z,25.98
2023-02-10T21:23:37.718Z,24.27
2023-02-10T21:26:06.233Z,22.52
2023-02-10T21:28:35.528Z,22.25
2023-02-10T21:31:10.737Z,25.48
2023-02-10T21:33:39.705Z,22.90
2023-02-10T21:36:09.030Z,24.77
2023-02-10T21:38:36.843Z,23.77
2023-02-10T21:41:06.639Z,22.75
2023-02-10T21:43:34.461Z,21.52
2023-02-10T21:46:02.237Z,22.48
2023-02-10T21:48:31.384Z,25.27
2023-02-10T21:50:59.919Z,22.77
2023-02-10T21:53:28.036Z,22.02
2023-02-10T21:55:55.817Z,21.83
2023-02-10T21:58:24.013Z,23.10
2023-02-10T22:00:51.823Z,20.55
2023-02-10T22:03:19.893Z,23.30
2023-02-10T22:05:56.009Z,23.88
2023-02-10T22:08:26.272Z,22.80
2023-02-10T22:10:54.124Z,21.23
2023-02-10T22:13:21.860Z,23.33
2023-02-10T22:15:53.595Z,21.50
2023-02-10T22:18:21.820Z,21.95
2023-02-10T22:20:49.711Z,22.13
2023-02-10T22:23:19.294Z,23.88
2023-02-10T22:25:49.014Z,24.83
2023-02-10T22:28:17.213Z,22.20
2023-02-10T22:30:45.095Z,23.25
2023-02-10T22:33:13.838Z,21.92
2023-02-10T22:35:42.434Z,22.50
2023-02-10T22:38:10.167Z,19.60
2023-02-10T22:40:43.205Z,22.63
2023-02-10T22:43:11.164Z,21.60
2023-02-10T22:45:39.759Z,21.35
2023-02-10T22:48:07.585Z,22.30
2023-02-10T22:50:35.604Z,19.25
2023-02-10T22:53:03.476Z,21.42
2023-02-10T22:55:31.431Z,22.95
2023-02-10T22:58:00.567Z,21.42
2023-02-10T23:00:29.301Z,22.95
2023-02-10T23:03:00.475Z,21.73
2023-02-10T23:05:28.505Z,23.73
2023-02-10T23:07:56.255Z,21.77
2023-02-10T23:10:24.058Z,20.27
2023-02-10T23:12:51.836Z,20.85
2023-02-10T23:15:21.135Z,23.00
2023-02-10T23:17:48.864Z,21.17
2023-02-10T23:20:16.710Z,22.83
2023-02-10T23:22:46.292Z,22.63
2023-02-10T23:25:15.415Z,18.63
2023-02-10T23:27:43.195Z,22.25
2023-02-10T23:30:12.310Z,21.52
2023-02-10T23:32:41.432Z,21.40
2023-02-10T23:35:09.472Z,22.75
2023-02-10T23:37:37.428Z,19.48
2023-02-10T23:40:05.779Z,19.83
2023-02-10T23:42:33.580Z,22.17
2023-02-10T23:45:01.393Z,18.02
2023-02-10T23:47:29.278Z,20.38
2023-02-10T23:49:58.427Z,19.60
2023-02-10T23:52:26.245Z,18.85
2023-02-10T23:54:54.139Z,19.77
2023-02-10T23:57:21.916Z,20.55
2023-02-10T23:59:49.859Z,18.80
